Time;durP1;ratioP1;P1;durP2;ratioP2;P2;SDS_P1;SDS_P2;PMS_P1;PMS_P2;Temp;Humidity;BMP_temperature;BMP_pressure;BME280_temperature;BME280_humidity;BME280_pressure;Samples;Min_cycle;Max_cycle;Signal;HPM_P1;HPM_P2
2022/08/09 00:01:59;;;;;;;;;;;;;;;;;;;;;
2022/08/09 00:07:59;;;;;;;;;9.67;9.67;;;;;-147.49;100.00;58502.75;6081358;23;28500;-92
2022/08/09 00:11:23;;;;;;;;;8.00;8.00;;;;;-147.49;100.00;58502.75;6143317;23;28350;-92
2022/08/09 00:14:22;;;;;;;;;;;;;;;;;;;;;
2022/08/09 00:30:29;;;;;;;;;;;;;;;;;;;;;
2022/08/09 00:33:34;;;;;;;;;9.00;9.00;;;;;-147.49;100.00;58502.75;6178968;22;57806;-92
2022/08/09 00:36:45;;;;;;;;;9.33;9.33;;;;;-147.49;100.00;58502.75;6304947;22;28399;-92
2022/08/09 00:39:47;;;;;;;;;8.67;8.67;;;;;-147.49;100.00;58502.75;6306780;22;28258;-92
2022/08/09 00:53:29;;;;;;;;;8.67;8.67;;;;;-147.49;100.00;58502.75;6293649;22;28553;-92
2022/08/09 00:56:29;;;;;;;;;;;;;;;;;;;;;
2022/08/09 00:59:25;;;;;;;;;;;;;;;;;;;;;
2022/08/09 01:02:45;;;;;;;;;;;;;;;;;;;;;
2022/08/09 01:05:53;;;;;;;;;;;;;;;;;;;;;
2022/08/09 01:08:39;;;;;;;;;10.33;10.33;;;;;-147.49;100.00;58502.75;6391578;22;57372;-92
2022/08/09 01:11:57;;;;;;;;;;;;;;;;;;;;;
2022/08/09 01:14:51;;;;;;;;;;;;;;;;;;;;;
2022/08/09 01:18:20;;;;;;;;;;;;;;;;;;;;;
2022/08/09 01:21:28;;;;;;;;;;;;;;;;;;;;;
2022/08/09 01:24:48;;;;;;;;;;;;;;;;;;;;;
2022/08/09 01:27:33;;;;;;;;;;;;;;;;;;;;;
2022/08/09 01:30:45;;;;;;;;;;;;;;;;;;;;;
2022/08/09 01:33:57;;;;;;;;;12.00;10.67;;;;;-147.49;100.00;58502.75;6391970;22;57259;-92
2022/08/09 01:37:05;;;;;;;;;14.00;14.00;;;;;-147.49;100.00;58502.75;6363721;22;29661;-93
2022/08/09 01:40:13;;;;;;;;;;;;;;;;;;;;;
2022/08/09 01:50:21;;;;;;;;;14.00;14.00;;;;;-147.49;100.00;58502.75;6375562;22;28296;-92
2022/08/09 01:53:52;;;;;;;;;;;;;;;;;;;;;
2022/08/09 01:56:58;;;;;;;;;;;;;;;;;;;;;
2022/08/09 01:59:45;;;;;;;;;14.00;14.00;;;;;-147.49;100.00;58502.75;6387570;22;56994;-92
2022/08/09 07:05:54;;;;;;;;;;;;;;;;;;;;;
2022/08/09 07:19:22;;;;;;;;;6.00;6.00;;;;;-147.49;100.00;58502.75;6086642;23;28741;-95
2022/08/09 11:36:17;;;;;;;;;2.00;2.00;;;;;-147.49;100.00;58502.75;6326717;22;29329;-94
2022/08/09 12:16:56;;;;;;;;;1.33;1.33;;;;;-147.49;100.00;58502.75;6363111;22;29685;-96
2022/08/09 19:46:26;;;;;;;;;1.00;1.00;;;;;-147.49;100.00;58502.75;6394382;22;28533;-91
2022/08/09 19:48:53;;;;;;;;;1.00;1.00;;;;;-147.49;100.00;58502.75;6394899;22;28334;-91
2022/08/09 19:51:19;;;;;;;;;0.00;0.00;;;;;-147.49;100.00;58502.75;6394196;22;28408;-90
2022/08/09 19:53:44;;;;;;;;;2.33;2.33;;;;;-147.49;100.00;58502.75;6395293;22;28356;-90
2022/08/09 19:56:10;;;;;;;;;2.00;2.00;;;;;-147.49;100.00;58502.75;6365666;22;28543;-91
2022/08/09 19:58:36;;;;;;;;;2.00;2.00;;;;;-147.49;100.00;58502.75;6366081;22;28449;-91
2022/08/09 20:01:02;;;;;;;;;1.00;1.00;;;;;-147.49;100.00;58502.75;6392959;22;28517;-91
2022/08/09 20:03:28;;;;;;;;;1.00;1.00;;;;;-147.49;100.00;58502.75;6366045;22;28483;-91
2022/08/09 20:06:11;;;;;;;;;1.00;1.00;;;;;-147.49;100.00;58502.75;6395577;22;28315;-92
2022/08/09 20:08:37;;;;;;;;;1.33;1.33;;;;;-147.49;100.00;58502.75;6394202;22;28320;-92
2022/08/09 20:11:03;;;;;;;;;2.00;2.00;;;;;-147.49;100.00;58502.75;6364521;22;28354;-91
2022/08/09 20:13:28;;;;;;;;;2.00;2.00;;;;;-147.49;100.00;58502.75;6366397;22;28314;-91
2022/08/09 20:15:54;;;;;;;;;1.00;1.00;;;;;-147.49;100.00;58502.75;6366256;22;28270;-91
2022/08/09 20:18:36;;;;;;;;;1.00;1.00;;;;;-147.49;100.00;58502.75;6394559;22;28271;-92
2022/08/09 20:21:30;;;;;;;;;1.00;1.00;;;;;-147.49;100.00;58502.75;6365803;22;28611;-92
2022/08/09 20:24:13;;;;;;;;;;;;;;;;;;;;;
2022/08/09 20:26:42;;;;;;;;;1.67;1.67;;;;;-147.49;100.00;58502.75;6392056;22;52914;-92
2022/08/09 20:29:35;;;;;;;;;2.00;2.00;;;;;-147.49;100.00;58502.75;6365225;22;30682;-92
2022/08/09 20:32:03;;;;;;;;;1.00;1.00;;;;;-147.49;100.00;58502.75;6363891;22;28698;-92
2022/08/09 20:34:37;;;;;;;;;1.33;1.33;;;;;-147.49;100.00;58502.75;6366338;22;28227;-92
2022/08/09 20:37:36;;;;;;;;;;;;;;;;;;;;;
2022/08/09 20:40:36;;;;;;;;;;;;;;;;;;;;;
2022/08/09 20:43:12;;;;;;;;;1.00;1.00;;;;;-147.49;100.00;58502.75;6391398;22;56002;-92
2022/08/09 20:45:55;;;;;;;;;;;;;;;;;;;;;
2022/08/09 20:49:01;;;;;;;;;1.00;1.00;;;;;-147.49;100.00;58502.75;6393994;22;52741;-91
2022/08/09 20:51:42;;;;;;;;;1.00;1.00;;;;;-147.49;100.00;58502.75;6387038;22;29222;-92
2022/08/09 20:54:40;;;;;;;;;2.00;2.00;;;;;-147.49;100.00;58502.75;6365870;22;29428;-92
2022/08/09 20:57:14;;;;;;;;;2.33;2.33;;;;;-147.49;100.00;58502.75;6365968;22;28376;-91
2022/08/09 20:59:42;;;;;;;;;2.33;2.33;;;;;-147.49;100.00;58502.75;6366142;22;28422;-92
2022/08/09 21:02:18;;;;;;;;;2.00;2.00;;;;;-147.49;100.00;58502.75;6392692;22;28342;-92
2022/08/09 21:05:01;;;;;;;;;;;;;;;;;;;;;
2022/08/09 21:07:55;;;;;;;;;3.00;3.00;;;;;-147.49;100.00;58502.75;6393094;22;55026;-92
2022/08/09 21:10:47;;;;;;;;;2.00;2.00;;;;;-147.49;100.00;58502.75;6365222;22;28475;-92
2022/08/09 21:13:20;;;;;;;;;2.00;2.00;;;;;-147.49;100.00;58502.75;6365813;22;29755;-93
2022/08/09 21:16:03;;;;;;;;;2.00;2.00;;;;;-147.49;100.00;58502.75;6365504;22;28545;-92
2022/08/09 21:19:12;;;;;;;;;;;;;;;;;;;;;
2022/08/09 21:21:43;;;;;;;;;1.67;1.67;;;;;-147.49;100.00;58502.75;6392482;22;52650;-91
2022/08/09 21:24:24;;;;;;;;;;;;;;;;;;;;;
2022/08/09 21:27:02;;;;;;;;;1.67;1.67;;;;;-147.49;100.00;58502.75;6391868;22;56962;-92
2022/08/09 21:29:51;;;;;;;;;2.00;2.00;;;;;-147.49;100.00;58502.75;6392761;22;28400;-92
2022/08/09 21:32:53;;;;;;;;;;;;;;;;;;;;;
2022/08/09 21:35:20;;;;;;;;;;;;;;;;;;;;;
2022/08/09 21:38:00;;;;;;;;;2.67;2.67;;;;;-147.49;100.00;58502.75;6392671;22;56050;-92
2022/08/09 21:40:50;;;;;;;;;2.00;2.00;;;;;-147.49;100.00;58502.75;6365014;22;28682;-92
2022/08/09 21:43:20;;;;;;;;;2.00;2.00;;;;;-147.49;100.00;58502.75;6365845;22;28330;-91
2022/08/09 21:46:05;;;;;;;;;;;;;;;;;;;;;
2022/08/09 21:48:43;;;;;;;;;;;;;;;;;;;;;
2022/08/09 21:51:48;;;;;;;;;;;;;;;;;;;;;
2022/08/09 21:54:29;;;;;;;;;;;;;;;;;;;;;
2022/08/09 21:57:06;;;;;;;;;2.67;2.67;;;;;-147.49;100.00;58502.75;6391453;22;56886;-92
2022/08/09 22:02:43;;;;;;;;;2.00;2.00;;;;;-147.49;100.00;58502.75;6393057;22;28487;-91
2022/08/09 22:05:53;;;;;;;;;;;;;;;;;;;;;
2022/08/09 22:08:42;;;;;;;;;2.00;2.00;;;;;-147.49;100.00;58502.75;6392907;22;57816;-92
2022/08/09 22:11:15;;;;;;;;;3.67;3.67;;;;;-147.49;100.00;58502.75;6366161;22;28884;-92
2022/08/09 22:13:53;;;;;;;;;;;;;;;;;;;;;
2022/08/09 22:16:24;;;;;;;;;2.00;2.00;;;;;-147.49;100.00;58502.75;6392425;22;52745;-92
2022/08/09 22:19:00;;;;;;;;;4.00;3.00;;;;;-147.49;100.00;58502.75;6393088;22;28744;-92
2022/08/09 22:21:35;;;;;;;;;3.00;3.00;;;;;-147.49;100.00;58502.75;6363074;22;32336;-92
2022/08/09 22:24:16;;;;;;;;;;;;;;;;;;;;;
2022/08/09 22:26:47;;;;;;;;;2.67;2.67;;;;;-147.49;100.00;58502.75;6392002;22;53000;-92
2022/08/09 22:29:21;;;;;;;;;3.00;3.00;;;;;-147.49;100.00;58502.75;6364889;22;32320;-92
2022/08/09 22:32:05;;;;;;;;;3.00;3.00;;;;;-147.49;100.00;58502.75;6391917;22;28906;-92
2022/08/09 22:34:48;;;;;;;;;;;;;;;;;;;;;
2022/08/09 22:37:26;;;;;;;;;3.00;3.00;;;;;-147.49;100.00;58502.75;6392273;22;51746;-92
2022/08/09 22:40:10;;;;;;;;;2.67;2.67;;;;;-147.49;100.00;58502.75;6393878;22;28645;-92
2022/08/09 22:42:40;;;;;;;;;3.00;3.00;;;;;-147.49;100.00;58502.75;6391886;22;28320;-92
2022/08/09 22:45:18;;;;;;;;;3.33;2.33;;;;;-147.49;100.00;58502.75;6365162;22;28499;-91
2022/08/09 22:47:46;;;;;;;;;4.00;4.00;;;;;-147.49;100.00;58502.75;6365185;22;28475;-92
2022/08/09 22:50:12;;;;;;;;;3.00;3.00;;;;;-147.49;100.00;58502.75;6392990;22;28467;-92
2022/08/09 22:52:40;;;;;;;;;5.00;5.00;;;;;-147.49;100.00;58502.75;6393826;22;28464;-93
2022/08/09 22:55:11;;;;;;;;;4.33;4.33;;;;;-147.49;100.00;58502.75;6365173;22;28511;-92
2022/08/09 22:57:42;;;;;;;;;3.00;3.00;;;;;-147.49;100.00;58502.75;6393793;22;28397;-91
2022/08/09 23:00:12;;;;;;;;;4.00;4.00;;;;;-147.49;100.00;58502.75;6364959;22;30582;-92
2022/08/09 23:02:42;;;;;;;;;3.00;3.00;;;;;-147.49;100.00;58502.75;6394463;22;28438;-92
2022/08/09 23:05:18;;;;;;;;;4.00;4.00;;;;;-147.49;100.00;58502.75;6395214;22;28817;-92
2022/08/09 23:10:35;;;;;;;;;3.33;3.33;;;;;-147.49;100.00;58502.75;6394589;22;28711;-91
2022/08/09 23:13:03;;;;;;;;;8.00;8.00;;;;;-147.49;100.00;58502.75;6394956;22;28443;-92
2022/08/09 23:15:29;;;;;;;;;5.00;5.00;;;;;-147.49;100.00;58502.75;6366337;22;28214;-92
2022/08/09 23:18:12;;;;;;;;;4.00;4.00;;;;;-147.49;100.00;58502.75;6366462;22;28224;-92
2022/08/09 23:21:00;;;;;;;;;4.67;4.67;;;;;-147.49;100.00;58502.75;6392543;22;32694;-92
2022/08/09 23:23:33;;;;;;;;;4.00;4.00;;;;;-147.49;100.00;58502.75;6366099;22;28677;-92
2022/08/09 23:26:11;;;;;;;;;5.33;5.33;;;;;-147.49;100.00;58502.75;6394673;22;28245;-91
2022/08/09 23:28:40;;;;;;;;;5.67;5.67;;;;;-147.49;100.00;58502.75;6366342;22;28940;-91
2022/08/09 23:31:05;;;;;;;;;6.00;6.00;;;;;-147.49;100.00;58502.75;6392382;22;30546;-92
2022/08/09 23:33:41;;;;;;;;;7.00;7.00;;;;;-147.49;100.00;58502.75;6395272;22;28351;-91
2022/08/09 23:36:14;;;;;;;;;5.33;5.33;;;;;-147.49;100.00;58502.75;6365591;22;28589;-92
2022/08/09 23:38:46;;;;;;;;;5.00;5.00;;;;;-147.49;100.00;58502.75;6366162;22;28751;-92
2022/08/09 23:41:25;;;;;;;;;;;;;;;;;;;;;
2022/08/09 23:43:53;;;;;;;;;4.00;4.00;;;;;-147.49;100.00;58502.75;6393811;22;56783;-92
2022/08/09 23:46:41;;;;;;;;;6.00;6.00;;;;;-147.49;100.00;58502.75;6365647;22;28333;-93
2022/08/09 23:49:14;;;;;;;;;6.00;6.00;;;;;-147.49;100.00;58502.75;6366635;22;28443;-91
2022/08/09 23:51:42;;;;;;;;;5.00;5.00;;;;;-147.49;100.00;58502.75;6394736;22;29223;-92
2022/08/09 23:54:10;;;;;;;;;5.00;5.00;;;;;-147.49;100.00;58502.75;6394869;22;28503;-92
2022/08/09 23:56:40;;;;;;;;;5.00;5.00;;;;;-147.49;100.00;58502.75;6365686;22;28405;-92
2022/08/09 23:59:23;;;;;;;;;;;;;;;;;;;;;
